Time,TemperatureF,DewpointF,PressureIn,WindDirection,WindDirectionDegrees,WindSpeedMPH,WindSpeedGustMPH,Humidity,HourlyPrecipIn,Conditions,Clouds,dailyrainin,SolarRadiationWatts/m^2,SoftwareType,DateUTC
2013-06-09 00:01:00,61.5,55.3,29.66,SE,130,4.0,7.0,80,0.00,,,0.00,0.0,WUHU216DAVISVP2,2013-06-09 05:01:00,
2013-06-09 00:06:00,61.4,55.2,29.66,East,83,4.0,6.0,80,0.00,,,0.00,0.0,WUHU216DAVISVP2,2013-06-09 05:06:00,
2013-06-09 00:11:00,60.4,55.2,29.91,SSW,206,0.0,1.0,83,0.00,,BKN090,0.00,0.00,VWS V14.01,2013-06-09 05:11:00,
2013-06-09 00:16:00,61.4,55.6,29.66,SSE,158,0.0,8.0,81,0.00,,,0.00,0.0,WUHU216DAVISVP2,2013-06-09 05:16:00,
2013-06-09 00:21:00,61.3,55.4,29.66,SE,146,0.0,6.0,81,0.00,,,0.00,0.0,WUHU216DAVISVP2,2013-06-09 05:21:00,
2013-06-09 00:26:00,60.2,55.0,29.91,East,97,0.0,0.0,83,0.00,,BKN090,0.00,0.00,VWS V14.01,2013-06-09 05:26:00,
2013-06-09 00:32:00,60.2,55.3,29.91,ESE,105,3.0,5.0,84,0.00,,BKN090,0.00,0.00,VWS V14.01,2013-06-09 05:32:00,
2013-06-09 00:37:00,61.2,55.7,29.66,ESE,103,4.0,5.0,82,0.00,,,0.00,0.0,WUHU216DAVISVP2,2013-06-09 05:37:00,
2013-06-09 00:42:00,61.2,55.7,29.66,ESE,105,0.0,8.0,82,0.00,,,0.00,0.0,WUHU216DAVISVP2,2013-06-09 05:42:00,
2013-06-09 00:47:00,61.3,55.8,29.66,ESE,106,4.0,8.0,82,0.00,,,0.00,0.0,WUHU216DAVISVP2,2013-06-09 05:47:00,
2013-06-09 00:51:00,61.2,55.7,29.66,ESE,108,5.0,9.0,82,0.00,,,0.00,0.0,WUHU216DAVISVP2,2013-06-09 05:51:00,
2013-06-09 00:56:00,61.2,55.7,29.66,SE,129,0.0,9.0,82,0.00,,,0.00,0.0,WUHU216DAVISVP2,2013-06-09 05:56:00,
2013-06-09 01:01:00,61.2,55.7,29.66,SSE,160,4.0,7.0,82,0.00,,,0.00,0.0,WUHU216DAVISVP2,2013-06-09 06:01:00,
2013-06-09 01:07:00,60.1,55.3,29.90,NE,45,1.0,2.0,84,0.00,,BKN090,0.00,0.00,VWS V14.01,2013-06-09 06:07:00,
2013-06-09 01:12:00,60.1,55.3,29.90,ESE,121,0.0,0.0,84,0.00,,BKN090,0.00,0.00,VWS V14.01,2013-06-09 06:12:00,
2013-06-09 01:17:00,60.0,55.5,29.90,SSE,153,2.0,2.0,85,0.00,,BKN090,0.00,0.00,VWS V14.01,2013-06-09 06:17:00,
2013-06-09 01:22:00,61.0,55.5,29.66,ENE,76,0.0,7.0,82,0.00,,,0.00,0.0,WUHU216DAVISVP2,2013-06-09 06:22:00,
2013-06-09 01:27:00,59.9,55.1,29.90,SE,137,0.0,3.0,84,0.00,,BKN090,0.00,0.00,VWS V14.01,2013-06-09 06:27:00,
2013-06-09 01:32:00,60.9,55.4,29.65,ENE,65,0.0,10.0,82,0.00,,,0.00,0.0,WUHU216DAVISVP2,2013-06-09 06:32:00,
2013-06-09 01:37:00,60.9,55.4,29.65,ENE,64,5.0,10.0,82,0.00,,,0.00,0.0,WUHU216DAVISVP2,2013-06-09 06:37:00,
2013-06-09 01:42:00,61.0,55.5,29.65,East,99,0.0,10.0,82,0.00,,,0.00,0.0,WUHU216DAVISVP2,2013-06-09 06:42:00,
2013-06-09 01:47:00,61.0,55.5,29.66,SSE,154,6.0,8.0,82,0.00,,,0.00,0.0,WUHU216DAVISVP2,2013-06-09 06:47:00,
2013-06-09 01:52:00,61.1,55.6,29.65,SSE,162,3.0,9.0,82,0.00,,,0.00,0.0,WUHU216DAVISVP2,2013-06-09 06:52:00,
2013-06-09 01:57:00,61.1,55.6,29.66,SE,139,3.0,9.0,82,0.00,,,0.00,0.0,WUHU216DAVISVP2,2013-06-09 06:57:00,
2013-06-09 02:02:00,61.2,55.4,29.65,East,92,4.0,9.0,81,0.00,,,0.00,0.0,WUHU216DAVISVP2,2013-06-09 07:02:00,
2013-06-09 02:07:00,60.3,55.1,29.89,SE,134,6.0,6.0,83,0.00,,OVC065,0.00,0.00,VWS V14.01,2013-06-09 07:07:00,
2013-06-09 02:12:00,60.3,55.1,29.89,SSE,164,2.0,2.0,83,0.00,,OVC065,0.00,0.00,VWS V14.01,2013-06-09 07:12:00,
2013-06-09 02:17:00,61.3,55.1,29.65,SE,132,4.0,10.0,80,0.00,,,0.00,0.0,WUHU216DAVISVP2,2013-06-09 07:17:00,
2013-06-09 02:22:00,61.2,55.0,29.65,SSW,201,2.0,8.0,80,0.00,,,0.00,0.0,WUHU216DAVISVP2,2013-06-09 07:22:00,
2013-06-09 02:27:00,60.1,54.6,29.89,SE,140,5.0,5.0,82,0.00,,OVC065,0.00,0.00,VWS V14.01,2013-06-09 07:27:00,
2013-06-09 02:32:00,60.1,54.6,29.89,ESE,117,4.0,5.0,82,0.00,,OVC065,0.00,0.00,VWS V14.01,2013-06-09 07:32:00,
2013-06-09 02:37:00,61.1,54.9,29.65,ENE,59,2.0,9.0,80,0.00,,,0.00,0.0,WUHU216DAVISVP2,2013-06-09 07:37:00,
2013-06-09 02:42:00,60.9,54.7,29.65,SSE,163,0.0,9.0,80,0.00,,,0.00,0.0,WUHU216DAVISVP2,2013-06-09 07:42:00,
2013-06-09 02:47:00,59.9,54.4,29.89,East,83,1.0,2.0,82,0.00,,OVC065,0.00,0.00,VWS V14.01,2013-06-09 07:47:00,
2013-06-09 02:52:00,60.9,54.7,29.65,SSE,150,1.0,11.0,80,0.00,,,0.00,0.0,WUHU216DAVISVP2,2013-06-09 07:52:00,
2013-06-09 02:57:00,59.8,54.3,29.89,SE,134,1.0,1.0,82,0.00,,OVC065,0.00,0.00,VWS V14.01,2013-06-09 07:57:00,
2013-06-09 03:02:00,60.7,54.6,29.65,SSE,152,0.0,8.0,80,0.00,,,0.00,0.0,WUHU216DAVISVP2,2013-06-09 08:02:00,
2013-06-09 03:07:00,60.5,54.4,29.65,ESE,102,0.0,7.0,80,0.00,,,0.00,0.0,WUHU216DAVISVP2,2013-06-09 08:07:00,
2013-06-09 03:12:00,60.5,54.4,29.64,ESE,109,0.0,7.0,80,0.00,,,0.00,0.0,WUHU216DAVISVP2,2013-06-09 08:12:00,
2013-06-09 03:17:00,60.4,54.3,29.64,SSE,167,0.0,7.0,80,0.00,,,0.00,0.0,WUHU216DAVISVP2,2013-06-09 08:17:00,
2013-06-09 03:22:00,60.4,54.3,29.64,SSE,166,5.0,7.0,80,0.00,,,0.00,0.0,WUHU216DAVISVP2,2013-06-09 08:22:00,
2013-06-09 03:27:00,60.3,54.2,29.64,SSW,198,3.0,8.0,80,0.00,,,0.00,0.0,WUHU216DAVISVP2,2013-06-09 08:27:00,
2013-06-09 03:32:00,60.2,54.0,29.64,SE,130,0.0,8.0,80,0.00,,,0.00,0.0,WUHU216DAVISVP2,2013-06-09 08:32:00,
2013-06-09 03:37:00,60.1,53.9,29.64,SSW,207,3.0,7.0,80,0.00,,,0.00,0.0,WUHU216DAVISVP2,2013-06-09 08:37:00,
2013-06-09 03:42:00,59.9,54.1,29.64,SE,133,3.0,7.0,81,0.00,,,0.00,0.0,WUHU216DAVISVP2,2013-06-09 08:42:00,
2013-06-09 03:47:00,58.7,53.6,29.88,ESE,105,0.0,2.0,83,0.00,,BKN095,0.00,0.00,VWS V14.01,2013-06-09 08:47:00,
2013-06-09 03:52:00,59.5,54.0,29.64,SE,134,7.0,9.0,82,0.00,,,0.00,0.0,WUHU216DAVISVP2,2013-06-09 08:52:00,
2013-06-09 03:57:00,59.2,54.0,29.64,SW,232,0.0,9.0,83,0.00,,,0.00,0.0,WUHU216DAVISVP2,2013-06-09 08:57:00,
2013-06-09 04:02:00,59.0,53.8,29.63,SSE,150,0.0,9.0,83,0.00,,,0.00,0.0,WUHU216DAVISVP2,2013-06-09 09:02:00,
2013-06-09 04:07:00,58.9,54.1,29.63,ENE,69,3.0,7.0,84,0.00,,,0.00,0.0,WUHU216DAVISVP2,2013-06-09 09:07:00,
2013-06-09 04:12:00,58.5,54.0,29.63,SSE,152,5.0,9.0,85,0.00,,,0.00,0.0,WUHU216DAVISVP2,2013-06-09 09:12:00,
2013-06-09 04:17:00,58.2,54.0,29.63,NE,34,0.0,12.0,86,0.01,,,0.01,0.0,WUHU216DAVISVP2,2013-06-09 09:17:00,
2013-06-09 04:22:00,57.0,53.8,29.87,South,179,0.0,0.0,89,0.01,,-RA,0.01,0.00,VWS V14.01,2013-06-09 09:22:00,
2013-06-09 04:27:00,57.7,54.2,29.63,ESE,107,0.0,6.0,88,0.02,,,0.02,0.0,WUHU216DAVISVP2,2013-06-09 09:27:00,
2013-06-09 04:32:00,56.5,53.6,29.86,ESE,121,0.0,0.0,90,0.03,,-RA,0.03,0.00,VWS V14.01,2013-06-09 09:32:00,
2013-06-09 04:37:00,57.3,54.1,29.62,East,85,6.0,7.0,89,0.03,,,0.03,0.0,WUHU216DAVISVP2,2013-06-09 09:37:00,
2013-06-09 04:42:00,57.1,53.9,29.62,ESE,111,0.0,9.0,89,0.04,,,0.04,0.0,WUHU216DAVISVP2,2013-06-09 09:42:00,
2013-06-09 04:47:00,57.0,53.8,29.62,ENE,65,0.0,9.0,89,0.04,,,0.04,0.0,WUHU216DAVISVP2,2013-06-09 09:47:00,
2013-06-09 04:52:00,55.9,53.6,29.87,NNW,333,0.0,0.0,92,0.05,,-RA,0.05,0.00,VWS V14.01,2013-06-09 09:52:00,
2013-06-09 04:57:00,56.7,53.8,29.62,NNE,16,0.0,9.0,90,0.06,,,0.06,0.0,WUHU216DAVISVP2,2013-06-09 09:57:00,
2013-06-09 05:02:00,56.6,53.7,29.61,East,87,0.0,9.0,90,0.06,,,0.06,0.0,WUHU216DAVISVP2,2013-06-09 10:02:00,
2013-06-09 05:07:00,56.5,53.9,29.61,ENE,63,0.0,9.0,91,0.07,,,0.07,0.0,WUHU216DAVISVP2,2013-06-09 10:07:00,
2013-06-09 05:12:00,56.4,53.8,29.61,ENE,59,8.0,8.0,91,0.08,,,0.08,0.0,WUHU216DAVISVP2,2013-06-09 10:12:00,
2013-06-09 05:17:00,55.3,53.3,29.86,ESE,112,2.0,5.0,93,0.08,,-RA,0.08,0.00,VWS V14.01,2013-06-09 10:17:00,
2013-06-09 05:22:00,55.2,53.2,29.86,East,95,4.0,4.0,93,0.07,,-RA,0.08,0.00,VWS V14.01,2013-06-09 10:22:00,
2013-06-09 05:27:00,56.1,53.5,29.61,NE,50,0.0,7.0,91,0.07,,,0.09,0.0,WUHU216DAVISVP2,2013-06-09 10:27:00,
2013-06-09 05:32:00,56.0,53.7,29.61,East,80,2.0,7.0,92,0.07,,,0.10,0.0,WUHU216DAVISVP2,2013-06-09 10:32:00,
2013-06-09 05:37:00,56.0,53.7,29.61,NE,42,3.0,8.0,92,0.07,,,0.10,0.0,WUHU216DAVISVP2,2013-06-09 10:37:00,
2013-06-09 05:42:00,55.9,53.6,29.61,ESE,106,5.0,11.0,92,0.06,,,0.10,0.0,WUHU216DAVISVP2,2013-06-09 10:42:00,
2013-06-09 05:47:00,54.9,53.2,29.85,WNW,302,1.0,1.0,94,0.07,,-RA,0.11,0.00,VWS V14.01,2013-06-09 10:47:00,
2013-06-09 05:52:00,55.8,53.5,29.61,NE,54,0.0,10.0,92,0.06,,,0.11,0.0,WUHU216DAVISVP2,2013-06-09 10:52:00,
2013-06-09 05:57:00,55.8,53.5,29.61,SE,132,1.0,11.0,92,0.05,,,0.12,0.0,WUHU216DAVISVP2,2013-06-09 10:57:00,
2013-06-09 06:02:00,55.7,53.4,29.60,East,92,2.0,11.0,92,0.06,,,0.12,5.0,WUHU216DAVISVP2,2013-06-09 11:02:00,
2013-06-09 06:07:00,55.7,53.4,29.60,SE,130,5.0,9.0,92,0.05,,,0.12,7.0,WUHU216DAVISVP2,2013-06-09 11:07:00,
2013-06-09 06:12:00,55.7,53.7,29.60,South,186,4.0,9.0,93,0.05,,,0.13,5.0,WUHU216DAVISVP2,2013-06-09 11:12:00,
2013-06-09 06:17:00,55.7,53.7,29.61,East,86,5.0,11.0,93,0.05,,,0.13,11.0,WUHU216DAVISVP2,2013-06-09 11:17:00,
2013-06-09 06:22:00,54.7,53.3,29.85,ENE,78,3.0,5.0,95,0.06,,-RA,0.14,14.00,VWS V14.01,2013-06-09 11:22:00,
2013-06-09 06:27:00,55.7,53.7,29.60,ESE,114,4.0,12.0,93,0.05,,,0.14,16.0,WUHU216DAVISVP2,2013-06-09 11:27:00,
2013-06-09 06:32:00,55.7,53.7,29.60,NE,38,2.0,11.0,93,0.04,,,0.14,14.0,WUHU216DAVISVP2,2013-06-09 11:32:00,
2013-06-09 06:37:00,55.7,53.7,29.60,ESE,102,6.0,11.0,93,0.05,,,0.15,12.0,WUHU216DAVISVP2,2013-06-09 11:37:00,
2013-06-09 06:42:00,54.7,53.3,29.84,ESE,103,2.0,4.0,95,0.05,,-RA,0.15,23.00,VWS V14.01,2013-06-09 11:42:00,
2013-06-09 06:47:00,55.7,53.7,29.59,SE,124,10.0,16.0,93,0.04,,,0.15,32.0,WUHU216DAVISVP2,2013-06-09 11:47:00,
2013-06-09 06:52:00,54.7,53.3,29.84,SE,132,10.0,10.0,95,0.05,,-RA,0.16,30.00,VWS V14.01,2013-06-09 11:52:00,
2013-06-09 06:57:00,55.7,53.7,29.60,NNW,332,4.0,10.0,93,0.04,,,0.16,23.0,WUHU216DAVISVP2,2013-06-09 11:57:00,
2013-06-09 07:02:00,55.8,53.8,29.60,ESE,119,1.0,11.0,93,0.05,,,0.17,18.0,WUHU216DAVISVP2,2013-06-09 12:02:00,
2013-06-09 07:07:00,54.7,53.3,29.84,SE,127,0.0,2.0,95,0.05,,-RA,0.17,16.00,VWS V14.01,2013-06-09 12:07:00,
2013-06-09 07:12:00,55.7,53.7,29.60,SE,136,1.0,12.0,93,0.05,,,0.18,16.0,WUHU216DAVISVP2,2013-06-09 12:12:00,
2013-06-09 07:17:00,54.7,53.3,29.84,SSE,150,2.0,4.0,95,0.05,,-RA,0.18,23.00,VWS V14.01,2013-06-09 12:17:00,
2013-06-09 07:22:00,55.8,53.8,29.60,East,96,4.0,15.0,93,0.05,,,0.19,21.0,WUHU216DAVISVP2,2013-06-09 12:22:00,
2013-06-09 07:27:00,55.7,54.0,29.60,SSW,196,2.0,10.0,94,0.05,,,0.19,12.0,WUHU216DAVISVP2,2013-06-09 12:27:00,
2013-06-09 07:32:00,54.8,53.7,29.85,ENE,73,6.0,6.0,96,0.06,,-RA,0.20,21.00,VWS V14.01,2013-06-09 12:32:00,
2013-06-09 07:37:00,55.8,54.1,29.60,East,94,5.0,13.0,94,0.06,,,0.21,23.0,WUHU216DAVISVP2,2013-06-09 12:37:00,
2013-06-09 07:42:00,55.8,54.1,29.60,ENE,78,2.0,13.0,94,0.07,,,0.22,23.0,WUHU216DAVISVP2,2013-06-09 12:42:00,
2013-06-09 07:47:00,55.8,54.1,29.60,ESE,107,7.0,12.0,94,0.07,,,0.22,23.0,WUHU216DAVISVP2,2013-06-09 12:47:00,
2013-06-09 07:52:00,55.8,54.1,29.60,ENE,69,4.0,12.0,94,0.07,,,0.23,33.0,WUHU216DAVISVP2,2013-06-09 12:52:00,
2013-06-09 07:57:00,54.8,53.7,29.84,ESE,121,4.0,9.0,96,0.08,,RA,0.24,37.00,VWS V14.01,2013-06-09 12:57:00,
2013-06-09 08:02:00,55.8,54.1,29.59,SSE,157,8.0,12.0,94,0.08,,,0.25,30.0,WUHU216DAVISVP2,2013-06-09 13:02:00,
2013-06-09 08:07:00,55.8,54.1,29.59,ESE,115,4.0,15.0,94,0.09,,,0.26,35.0,WUHU216DAVISVP2,2013-06-09 13:07:00,
2013-06-09 08:12:00,55.8,54.1,29.59,East,84,11.0,15.0,94,0.09,,,0.27,28.0,WUHU216DAVISVP2,2013-06-09 13:12:00,
2013-06-09 08:17:00,55.8,54.1,29.59,South,187,2.0,15.0,94,0.09,,,0.27,26.0,WUHU216DAVISVP2,2013-06-09 13:17:00,
2013-06-09 08:22:00,55.8,54.1,29.59,SE,144,7.0,15.0,94,0.09,,,0.28,21.0,WUHU216DAVISVP2,2013-06-09 13:22:00,
2013-06-09 08:27:00,55.7,54.0,29.59,ESE,117,10.0,13.0,94,0.10,,,0.29,21.0,WUHU216DAVISVP2,2013-06-09 13:27:00,
2013-06-09 08:32:00,55.7,54.0,29.59,ENE,71,8.0,13.0,94,0.10,,,0.30,18.0,WUHU216DAVISVP2,2013-06-09 13:32:00,
2013-06-09 08:37:00,55.7,54.0,29.59,NE,56,4.0,12.0,94,0.10,,,0.31,19.0,WUHU216DAVISVP2,2013-06-09 13:37:00,
2013-06-09 08:42:00,54.7,53.6,29.84,SE,145,3.0,5.0,96,0.11,,-RA,0.32,19.00,VWS V14.01,2013-06-09 13:42:00,
2013-06-09 08:47:00,55.7,54.0,29.59,ESE,110,8.0,16.0,94,0.10,,,0.32,28.0,WUHU216DAVISVP2,2013-06-09 13:47:00,
2013-06-09 08:52:00,55.7,54.0,29.58,ENE,74,6.0,14.0,94,0.09,,,0.32,23.0,WUHU216DAVISVP2,2013-06-09 13:52:00,
2013-06-09 08:57:00,55.7,54.0,29.58,ESE,120,2.0,12.0,94,0.08,,,0.32,18.0,WUHU216DAVISVP2,2013-06-09 13:57:00,
2013-06-09 09:02:00,55.6,53.9,29.58,SE,138,7.0,16.0,94,0.07,,,0.32,23.0,WUHU216DAVISVP2,2013-06-09 14:02:00,
2013-06-09 09:07:00,55.6,53.9,29.58,SE,131,4.0,16.0,94,0.07,,,0.33,23.0,WUHU216DAVISVP2,2013-06-09 14:07:00,
2013-06-09 09:12:00,54.7,53.6,29.83,NNE,15,6.0,6.0,96,0.07,,-RA,0.33,28.00,VWS V14.01,2013-06-09 14:12:00,
2013-06-09 09:17:00,55.7,54.0,29.58,SSE,148,10.0,14.0,94,0.06,,,0.33,46.0,WUHU216DAVISVP2,2013-06-09 14:17:00,
2013-06-09 09:22:00,55.7,54.0,29.58,ESE,111,2.0,14.0,94,0.05,,,0.33,39.0,WUHU216DAVISVP2,2013-06-09 14:22:00,
2013-06-09 09:27:00,54.8,53.7,29.83,NNE,22,5.0,5.0,96,0.04,,-RA,0.33,46.00,VWS V14.01,2013-06-09 14:27:00,
2013-06-09 09:32:00,55.8,54.1,29.58,ESE,118,6.0,14.0,94,0.03,,,0.33,32.0,WUHU216DAVISVP2,2013-06-09 14:32:00,
2013-06-09 09:37:00,54.8,53.7,29.83,ENE,61,3.0,5.0,96,0.02,,-RA,0.33,40.00,VWS V14.01,2013-06-09 14:37:00,
2013-06-09 09:42:00,55.8,54.1,29.58,East,92,5.0,16.0,94,0.02,,,0.34,32.0,WUHU216DAVISVP2,2013-06-09 14:42:00,
2013-06-09 09:47:00,54.8,53.4,29.83,East,101,2.0,5.0,95,0.02,,-RA,0.34,53.00,VWS V14.01,2013-06-09 14:47:00,
2013-06-09 09:52:00,54.7,53.3,29.83,SW,217,1.0,3.0,95,0.02,,-RA,0.34,37.00,VWS V14.01,2013-06-09 14:52:00,
2013-06-09 09:57:00,55.7,54.0,29.58,SSE,156,4.0,16.0,94,0.03,,,0.35,35.0,WUHU216DAVISVP2,2013-06-09 14:57:00,
2013-06-09 10:02:00,55.6,53.9,29.58,East,101,9.0,12.0,94,0.03,,,0.35,40.0,WUHU216DAVISVP2,2013-06-09 15:02:00,
2013-06-09 10:07:00,55.6,53.9,29.58,East,99,10.0,15.0,94,0.02,,,0.35,39.0,WUHU216DAVISVP2,2013-06-09 15:07:00,
2013-06-09 10:12:00,55.5,53.8,29.58,SE,127,7.0,15.0,94,0.02,,,0.35,37.0,WUHU216DAVISVP2,2013-06-09 15:12:00,
2013-06-09 10:17:00,55.4,53.7,29.58,East,101,8.0,15.0,94,0.02,,,0.35,51.0,WUHU216DAVISVP2,2013-06-09 15:17:00,
2013-06-09 10:22:00,54.4,53.3,29.84,South,191,3.0,7.0,96,0.03,,-RA,0.36,56.00,VWS V14.01,2013-06-09 15:22:00,
2013-06-09 10:27:00,55.4,53.7,29.58,ENE,59,5.0,14.0,94,0.03,,,0.36,42.0,WUHU216DAVISVP2,2013-06-09 15:27:00,
2013-06-09 10:32:00,55.3,53.6,29.58,ESE,102,9.0,12.0,94,0.04,,,0.37,44.0,WUHU216DAVISVP2,2013-06-09 15:32:00,
2013-06-09 10:37:00,55.4,53.7,29.58,ESE,123,6.0,12.0,94,0.04,,,0.37,47.0,WUHU216DAVISVP2,2013-06-09 15:37:00,
2013-06-09 10:42:00,55.4,53.7,29.59,ESE,113,5.0,12.0,94,0.03,,,0.37,39.0,WUHU216DAVISVP2,2013-06-09 15:42:00,
2013-06-09 10:47:00,55.4,53.7,29.58,SE,144,4.0,12.0,94,0.03,,,0.37,74.0,WUHU216DAVISVP2,2013-06-09 15:47:00,
2013-06-09 10:52:00,54.5,53.4,29.83,North,5,4.0,8.0,96,0.03,,OVC011,0.37,60.00,VWS V14.01,2013-06-09 15:52:00,
2013-06-09 10:57:00,54.5,53.4,29.83,East,83,4.0,5.0,96,0.02,,OVC011,0.37,42.00,VWS V14.01,2013-06-09 15:57:00,
2013-06-09 11:02:00,55.5,53.8,29.59,SE,139,3.0,13.0,94,0.02,,,0.37,49.0,WUHU216DAVISVP2,2013-06-09 16:02:00,
2013-06-09 11:07:00,55.5,53.8,29.59,SE,132,9.0,12.0,94,0.02,,,0.37,53.0,WUHU216DAVISVP2,2013-06-09 16:07:00,
2013-06-09 11:12:00,55.5,53.5,29.59,East,86,3.0,13.0,93,0.02,,,0.37,62.0,WUHU216DAVISVP2,2013-06-09 16:12:00,
2013-06-09 11:17:00,54.6,53.2,29.83,ESE,105,7.0,10.0,95,0.02,,OVC016,0.37,76.00,VWS V14.01,2013-06-09 16:17:00,
2013-06-09 11:22:00,55.7,53.7,29.59,East,86,4.0,14.0,93,0.01,,,0.37,93.0,WUHU216DAVISVP2,2013-06-09 16:22:00,
2013-06-09 11:27:00,55.8,53.8,29.59,ESE,109,12.0,14.0,93,0.01,,,0.37,120.0,WUHU216DAVISVP2,2013-06-09 16:27:00,
2013-06-09 11:32:00,55.0,53.6,29.83,ESE,105,4.0,4.0,95,0.00,,OVC016,0.37,107.00,VWS V14.01,2013-06-09 16:32:00,
2013-06-09 11:37:00,56.1,54.1,29.59,SSW,192,3.0,14.0,93,0.00,,,0.37,91.0,WUHU216DAVISVP2,2013-06-09 16:37:00,
2013-06-09 11:42:00,55.1,53.4,29.84,SE,128,5.0,10.0,94,0.00,,OVC016,0.37,69.00,VWS V14.01,2013-06-09 16:42:00,
2013-06-09 11:47:00,56.1,53.8,29.59,South,181,3.0,13.0,92,0.00,,,0.37,83.0,WUHU216DAVISVP2,2013-06-09 16:47:00,
2013-06-09 11:52:00,55.1,53.4,29.84,NE,55,3.0,6.0,94,0.00,,OVC023,0.37,81.00,VWS V14.01,2013-06-09 16:52:00,
2013-06-09 11:57:00,56.1,53.8,29.59,ENE,75,4.0,11.0,92,0.00,,,0.37,107.0,WUHU216DAVISVP2,2013-06-09 16:57:00,
2013-06-09 12:02:00,56.1,53.8,29.59,ESE,118,12.0,12.0,92,0.00,,,0.37,149.0,WUHU216DAVISVP2,2013-06-09 17:02:00,
2013-06-09 12:07:00,56.2,53.6,29.59,ESE,123,2.0,12.0,91,0.00,,,0.37,146.0,WUHU216DAVISVP2,2013-06-09 17:07:00,
2013-06-09 12:12:00,55.3,53.3,29.84,East,96,3.0,10.0,93,0.00,,OVC021,0.37,132.00,VWS V14.01,2013-06-09 17:12:00,
2013-06-09 12:17:00,55.3,53.3,29.84,ESE,111,5.0,5.0,93,0.00,,OVC021,0.37,185.00,VWS V14.01,2013-06-09 17:17:00,
2013-06-09 12:22:00,56.4,53.5,29.59,ESE,117,4.0,15.0,90,0.00,,,0.37,197.0,WUHU216DAVISVP2,2013-06-09 17:22:00,
2013-06-09 12:27:00,56.6,53.7,29.59,ESE,118,2.0,15.0,90,0.00,,,0.37,216.0,WUHU216DAVISVP2,2013-06-09 17:27:00,
2013-06-09 12:32:00,56.8,53.9,29.59,East,96,7.0,12.0,90,0.00,,,0.37,178.0,WUHU216DAVISVP2,2013-06-09 17:32:00,
2013-06-09 12:37:00,56.7,53.5,29.59,ESE,102,9.0,16.0,89,0.00,,,0.37,190.0,WUHU216DAVISVP2,2013-06-09 17:37:00,
2013-06-09 12:42:00,55.8,53.2,29.84,ESE,122,2.0,2.0,91,0.00,,OVC021,0.37,148.00,VWS V14.01,2013-06-09 17:42:00,
2013-06-09 12:47:00,55.8,53.2,29.83,ESE,113,5.0,6.0,91,0.00,,OVC021,0.37,153.00,VWS V14.01,2013-06-09 17:47:00,
2013-06-09 12:52:00,56.8,53.6,29.59,SE,131,4.0,15.0,89,0.00,,,0.37,132.0,WUHU216DAVISVP2,2013-06-09 17:52:00,
2013-06-09 12:57:00,56.7,53.5,29.59,ESE,114,9.0,12.0,89,0.00,,,0.37,128.0,WUHU216DAVISVP2,2013-06-09 17:57:00,
2013-06-09 13:02:00,56.7,53.5,29.58,ESE,111,1.0,12.0,89,0.00,,,0.37,137.0,WUHU216DAVISVP2,2013-06-09 18:02:00,
2013-06-09 13:07:00,56.8,53.6,29.58,ENE,71,9.0,10.0,89,0.00,,,0.37,156.0,WUHU216DAVISVP2,2013-06-09 18:07:00,
2013-06-09 13:12:00,55.9,53.6,29.83,ESE,105,9.0,9.0,92,0.00,,OVC022,0.37,195.00,VWS V14.01,2013-06-09 18:12:00,
2013-06-09 13:17:00,56.2,53.9,29.83,SSE,161,2.0,4.0,92,0.00,,OVC022,0.37,207.00,VWS V14.01,2013-06-09 18:17:00,
2013-06-09 13:22:00,56.4,53.8,29.83,NE,40,4.0,4.0,91,0.00,,OVC022,0.37,234.00,VWS V14.01,2013-06-09 18:22:00,
2013-06-09 13:27:00,57.5,54.3,29.59,South,180,4.0,11.0,89,0.00,,,0.37,207.0,WUHU216DAVISVP2,2013-06-09 18:27:00,
2013-06-09 13:32:00,57.5,54.3,29.58,SSE,154,0.0,11.0,89,0.00,,,0.37,220.0,WUHU216DAVISVP2,2013-06-09 18:32:00,
2013-06-09 13:37:00,56.6,54.0,29.83,NW,318,1.0,3.0,91,0.00,,OVC022,0.37,197.00,VWS V14.01,2013-06-09 18:37:00,
2013-06-09 13:42:00,57.6,54.4,29.58,NE,52,4.0,9.0,89,0.00,,,0.37,151.0,WUHU216DAVISVP2,2013-06-09 18:42:00,
2013-06-09 13:47:00,57.6,54.4,29.58,SSE,164,2.0,11.0,89,0.00,,,0.37,200.0,WUHU216DAVISVP2,2013-06-09 18:47:00,
2013-06-09 13:52:00,57.8,54.6,29.58,ESE,102,4.0,11.0,89,0.00,,,0.37,302.0,WUHU216DAVISVP2,2013-06-09 18:52:00,
2013-06-09 13:57:00,57.2,54.6,29.83,SSW,205,2.0,2.0,91,0.00,,OVC022,0.37,232.00,VWS V14.01,2013-06-09 18:57:00,
2013-06-09 14:02:00,58.2,54.7,29.58,North,9,2.0,11.0,88,0.00,,,0.37,183.0,WUHU216DAVISVP2,2013-06-09 19:02:00,
2013-06-09 14:07:00,57.2,54.3,29.83,East,80,6.0,10.0,90,0.00,,OVC020,0.37,258.00,VWS V14.01,2013-06-09 19:07:00,
2013-06-09 14:12:00,57.3,54.4,29.83,SE,141,3.0,3.0,90,0.00,,OVC020,0.37,141.00,VWS V14.01,2013-06-09 19:12:00,
2013-06-09 14:17:00,58.3,54.7,29.58,West,269,1.0,12.0,88,0.00,,,0.37,151.0,WUHU216DAVISVP2,2013-06-09 19:17:00,
2013-06-09 14:22:00,58.1,54.2,29.58,SE,128,4.0,13.0,87,0.00,,,0.37,139.0,WUHU216DAVISVP2,2013-06-09 19:22:00,
2013-06-09 14:27:00,57.9,54.1,29.58,East,86,5.0,15.0,87,0.00,,,0.37,135.0,WUHU216DAVISVP2,2013-06-09 19:27:00,
2013-06-09 14:32:00,56.8,53.9,29.83,ENE,71,4.0,4.0,90,0.00,,OVC020,0.37,111.00,VWS V14.01,2013-06-09 19:32:00,
2013-06-09 14:37:00,57.7,54.2,29.58,East,100,5.0,11.0,88,0.00,,,0.37,158.0,WUHU216DAVISVP2,2013-06-09 19:37:00,
2013-06-09 14:42:00,57.7,54.2,29.58,NNW,346,0.0,11.0,88,0.00,,,0.37,134.0,WUHU216DAVISVP2,2013-06-09 19:42:00,
2013-06-09 14:47:00,57.6,54.1,29.58,ENE,63,2.0,9.0,88,0.00,,,0.37,128.0,WUHU216DAVISVP2,2013-06-09 19:47:00,
2013-06-09 14:52:00,56.6,54.0,29.83,ESE,123,3.0,5.0,91,0.00,,OVC013,0.37,139.00,VWS V14.01,2013-06-09 19:52:00,
2013-06-09 14:57:00,57.6,54.4,29.59,ESE,115,6.0,13.0,89,0.00,,,0.37,148.0,WUHU216DAVISVP2,2013-06-09 19:57:00,
2013-06-09 15:02:00,56.7,54.1,29.83,ENE,65,5.0,5.0,91,0.00,,OVC013,0.37,148.00,VWS V14.01,2013-06-09 20:02:00,
2013-06-09 15:07:00,57.7,54.5,29.59,SSE,158,2.0,8.0,89,0.00,,,0.37,135.0,WUHU216DAVISVP2,2013-06-09 20:07:00,
2013-06-09 15:12:00,57.7,54.2,29.59,SE,132,7.0,11.0,88,0.00,,,0.37,137.0,WUHU216DAVISVP2,2013-06-09 20:12:00,
2013-06-09 15:17:00,56.7,53.8,29.83,ESE,118,2.0,4.0,90,0.00,,OVC013,0.37,116.00,VWS V14.01,2013-06-09 20:17:00,
2013-06-09 15:22:00,56.6,53.7,29.83,ENE,65,0.0,2.0,90,0.00,,OVC013,0.37,118.00,VWS V14.01,2013-06-09 20:22:00,
2013-06-09 15:27:00,56.7,54.1,29.84,NE,42,3.0,3.0,91,0.00,,OVC013,0.37,116.00,VWS V14.01,2013-06-09 20:27:00,
2013-06-09 15:32:00,57.6,54.4,29.59,SE,129,3.0,9.0,89,0.00,,,0.37,116.0,WUHU216DAVISVP2,2013-06-09 20:32:00,
2013-06-09 15:37:00,57.6,54.4,29.59,ESE,122,1.0,9.0,89,0.00,,,0.37,118.0,WUHU216DAVISVP2,2013-06-09 20:37:00,
2013-06-09 15:42:00,57.5,54.3,29.59,NNE,25,0.0,9.0,89,0.00,,,0.37,134.0,WUHU216DAVISVP2,2013-06-09 20:42:00,
2013-06-09 15:47:00,57.6,54.4,29.59,NE,37,0.0,7.0,89,0.00,,,0.37,125.0,WUHU216DAVISVP2,2013-06-09 20:47:00,
2013-06-09 15:52:00,57.7,54.5,29.59,ESE,123,2.0,7.0,89,0.00,,,0.37,141.0,WUHU216DAVISVP2,2013-06-09 20:52:00,
2013-06-09 15:57:00,57.7,54.5,29.59,ENE,59,2.0,6.0,89,0.00,,,0.37,149.0,WUHU216DAVISVP2,2013-06-09 20:57:00,
2013-06-09 16:02:00,57.8,54.6,29.58,NE,55,2.0,7.0,89,0.00,,,0.37,156.0,WUHU216DAVISVP2,2013-06-09 21:02:00,
2013-06-09 16:07:00,58.0,55.1,29.58,NE,54,0.0,7.0,90,0.00,,,0.37,167.0,WUHU216DAVISVP2,2013-06-09 21:07:00,
2013-06-09 16:12:00,58.1,55.2,29.59,ENE,72,4.0,6.0,90,0.00,,,0.37,144.0,WUHU216DAVISVP2,2013-06-09 21:12:00,
2013-06-09 16:17:00,58.0,55.1,29.58,NE,37,6.0,7.0,90,0.00,,,0.37,163.0,WUHU216DAVISVP2,2013-06-09 21:17:00,
2013-06-09 16:22:00,57.0,54.7,29.83,East,88,0.0,0.0,92,0.00,,-RA,0.37,165.00,VWS V14.01,2013-06-09 21:22:00,
2013-06-09 16:27:00,58.1,55.2,29.58,ENE,78,2.0,10.0,90,0.00,,,0.37,167.0,WUHU216DAVISVP2,2013-06-09 21:27:00,
2013-06-09 16:32:00,57.3,55.0,29.83,East,83,1.0,1.0,92,0.00,,-RA,0.37,156.00,VWS V14.01,2013-06-09 21:32:00,
2013-06-09 16:37:00,58.2,55.0,29.58,NNE,22,4.0,8.0,89,0.00,,,0.37,148.0,WUHU216DAVISVP2,2013-06-09 21:37:00,
2013-06-09 16:42:00,58.3,55.4,29.58,NNE,15,4.0,8.0,90,0.00,,,0.37,179.0,WUHU216DAVISVP2,2013-06-09 21:42:00,
2013-06-09 16:47:00,57.3,55.0,29.83,ESE,104,3.0,4.0,92,0.00,,-RA,0.37,165.00,VWS V14.01,2013-06-09 21:47:00,
2013-06-09 16:52:00,58.3,55.3,29.58,NE,52,5.0,7.0,90,0.00,,,0.37,130.0,WUHU216DAVISVP2,2013-06-09 21:52:00,
2013-06-09 16:57:00,57.2,54.9,29.84,ESE,123,2.0,3.0,92,0.00,,-RA,0.37,127.00,VWS V14.01,2013-06-09 21:57:00,
2013-06-09 17:02:00,58.3,55.4,29.58,SE,130,6.0,7.0,90,0.00,,,0.37,113.0,WUHU216DAVISVP2,2013-06-09 22:02:00,
2013-06-09 17:07:00,58.3,55.4,29.58,ENE,76,0.0,6.0,90,0.00,,,0.37,135.0,WUHU216DAVISVP2,2013-06-09 22:07:00,
2013-06-09 17:12:00,58.3,55.3,29.58,ENE,72,2.0,8.0,90,0.00,,,0.37,105.0,WUHU216DAVISVP2,2013-06-09 22:12:00,
2013-06-09 17:17:00,58.3,55.3,29.58,NNE,26,3.0,8.0,90,0.00,,,0.37,90.0,WUHU216DAVISVP2,2013-06-09 22:17:00,
2013-06-09 17:22:00,57.2,54.9,29.83,East,94,1.0,2.0,92,0.00,,OVC011,0.37,97.00,VWS V14.01,2013-06-09 22:22:00,
2013-06-09 17:27:00,57.2,55.2,29.84,East,96,0.0,1.0,93,0.00,,OVC009,0.37,72.00,VWS V14.01,2013-06-09 22:27:00,
2013-06-09 17:32:00,58.3,55.7,29.59,NE,42,2.0,8.0,91,0.00,,,0.37,67.0,WUHU216DAVISVP2,2013-06-09 22:32:00,
2013-06-09 17:37:00,58.3,55.6,29.59,East,85,3.0,7.0,91,0.00,,,0.37,49.0,WUHU216DAVISVP2,2013-06-09 22:37:00,
2013-06-09 17:42:00,58.2,55.6,29.59,SSE,162,0.0,6.0,91,0.00,,,0.37,51.0,WUHU216DAVISVP2,2013-06-09 22:42:00,
2013-06-09 17:47:00,58.2,55.6,29.59,South,172,2.0,6.0,91,0.00,,,0.37,35.0,WUHU216DAVISVP2,2013-06-09 22:47:00,
2013-06-09 17:52:00,58.2,55.6,29.59,SSW,204,0.0,6.0,91,0.00,,,0.37,35.0,WUHU216DAVISVP2,2013-06-09 22:52:00,
2013-06-09 17:57:00,57.2,55.2,29.84,East,98,0.0,0.0,93,0.00,,OVC009,0.37,32.00,VWS V14.01,2013-06-09 22:57:00,
2013-06-09 18:02:00,58.2,55.6,29.58,SE,126,0.0,9.0,91,0.00,,,0.37,37.0,WUHU216DAVISVP2,2013-06-09 23:02:00,
2013-06-09 18:07:00,58.1,55.8,29.58,ENE,65,1.0,7.0,92,0.00,,,0.37,47.0,WUHU216DAVISVP2,2013-06-09 23:07:00,
2013-06-09 18:12:00,57.2,55.5,29.83,ENE,74,2.0,3.0,94,0.00,,OVC009,0.37,65.00,VWS V14.01,2013-06-09 23:12:00,
2013-06-09 18:17:00,58.2,55.8,29.58,ESE,117,1.0,7.0,92,0.00,,,0.37,97.0,WUHU216DAVISVP2,2013-06-09 23:17:00,
2013-06-09 18:22:00,58.3,55.9,29.58,ESE,117,0.0,9.0,92,0.00,,,0.37,76.0,WUHU216DAVISVP2,2013-06-09 23:22:00,
2013-06-09 18:27:00,58.4,56.0,29.58,ENE,63,0.0,9.0,92,0.00,,,0.37,81.0,WUHU216DAVISVP2,2013-06-09 23:27:00,
2013-06-09 18:32:00,58.5,56.1,29.58,NNE,21,4.0,7.0,92,0.00,,,0.37,79.0,WUHU216DAVISVP2,2013-06-09 23:32:00,
2013-06-09 18:37:00,58.4,56.0,29.58,NNE,12,5.0,6.0,92,0.00,,,0.37,69.0,WUHU216DAVISVP2,2013-06-09 23:37:00,
2013-06-09 18:42:00,58.4,56.0,29.58,ESE,105,2.0,9.0,92,0.00,,,0.37,53.0,WUHU216DAVISVP2,2013-06-09 23:42:00,
2013-06-09 18:47:00,58.4,56.0,29.58,ENE,71,4.0,9.0,92,0.00,,,0.37,44.0,WUHU216DAVISVP2,2013-06-09 23:47:00,
2013-06-09 18:52:00,58.3,55.9,29.59,NE,39,1.0,7.0,92,0.00,,,0.37,21.0,WUHU216DAVISVP2,2013-06-09 23:52:00,
2013-06-09 18:57:00,57.2,55.5,29.84,NE,48,1.0,1.0,94,0.00,,OVC009,0.37,23.00,VWS V14.01,2013-06-09 23:57:00,
2013-06-09 19:02:00,58.2,55.8,29.59,NE,41,3.0,7.0,92,0.00,,,0.37,19.0,WUHU216DAVISVP2,2013-06-10 00:02:00,
2013-06-09 19:07:00,58.1,55.8,29.59,East,88,0.0,6.0,92,0.00,,,0.37,37.0,WUHU216DAVISVP2,2013-06-10 00:07:00,
2013-06-09 19:12:00,57.1,55.4,29.84,NE,55,1.0,2.0,94,0.00,,OVC007,0.37,30.00,VWS V14.01,2013-06-10 00:12:00,
2013-06-09 19:17:00,58.1,56.0,29.59,East,92,2.0,6.0,93,0.00,,,0.37,42.0,WUHU216DAVISVP2,2013-06-10 00:17:00,
2013-06-09 19:22:00,58.0,56.0,29.60,ESE,117,1.0,6.0,93,0.00,,,0.37,63.0,WUHU216DAVISVP2,2013-06-10 00:22:00,
2013-06-09 19:27:00,58.1,56.1,29.59,ENE,71,0.0,6.0,93,0.00,,,0.37,25.0,WUHU216DAVISVP2,2013-06-10 00:27:00,
2013-06-09 19:32:00,58.1,56.1,29.60,ENE,72,0.0,4.0,93,0.00,,,0.37,18.0,WUHU216DAVISVP2,2013-06-10 00:32:00,
2013-06-09 19:37:00,58.1,56.1,29.60,ENE,72,0.0,2.0,93,0.00,,,0.37,18.0,WUHU216DAVISVP2,2013-06-10 00:37:00,
2013-06-09 19:42:00,57.1,55.7,29.85,ENE,71,0.0,0.0,95,0.00,,OVC007,0.37,14.00,VWS V14.01,2013-06-10 00:42:00,
2013-06-09 19:47:00,58.1,56.0,29.60,NE,44,1.0,3.0,93,0.00,,,0.37,19.0,WUHU216DAVISVP2,2013-06-10 00:47:00,
2013-06-09 19:52:00,58.1,56.1,29.60,NE,41,1.0,2.0,93,0.00,,,0.37,12.0,WUHU216DAVISVP2,2013-06-10 00:52:00,
2013-06-09 19:57:00,58.1,56.1,29.60,NE,42,1.0,2.0,93,0.00,,,0.37,7.0,WUHU216DAVISVP2,2013-06-10 00:57:00,
2013-06-09 20:02:00,58.1,56.0,29.60,NE,38,3.0,6.0,93,0.00,,,0.37,7.0,WUHU216DAVISVP2,2013-06-10 01:02:00,
2013-06-09 20:07:00,58.0,55.9,29.59,ENE,76,0.0,6.0,93,0.00,,,0.37,7.0,WUHU216DAVISVP2,2013-06-10 01:07:00,
2013-06-09 20:12:00,58.0,55.9,29.59,NE,42,2.0,5.0,93,0.00,,,0.37,5.0,WUHU216DAVISVP2,2013-06-10 01:12:00,
2013-06-09 20:17:00,56.9,55.8,29.84,NE,39,2.0,4.0,96,0.00,,,0.37,5.00,VWS V14.01,2013-06-10 01:17:00,
2013-06-09 20:22:00,57.9,56.1,29.59,NE,40,5.0,7.0,94,0.00,,,0.37,7.0,WUHU216DAVISVP2,2013-06-10 01:22:00,
2013-06-09 20:27:00,57.8,56.0,29.59,NE,34,4.0,7.0,94,0.00,,,0.37,7.0,WUHU216DAVISVP2,2013-06-10 01:27:00,
2013-06-09 20:32:00,57.8,56.0,29.59,NE,41,5.0,7.0,94,0.00,,,0.37,7.0,WUHU216DAVISVP2,2013-06-10 01:32:00,
2013-06-09 20:37:00,57.8,56.0,29.60,NE,34,4.0,7.0,94,0.00,,,0.37,0.0,WUHU216DAVISVP2,2013-06-10 01:37:00,
2013-06-09 20:42:00,56.7,55.6,29.85,NE,35,4.0,4.0,96,0.00,,,0.37,0.00,VWS V14.01,2013-06-10 01:42:00,
2013-06-09 20:47:00,56.7,55.6,29.85,NE,36,3.0,4.0,96,0.00,,,0.37,5.00,VWS V14.01,2013-06-10 01:47:00,
2013-06-09 20:52:00,57.7,55.9,29.60,NE,36,0.0,6.0,94,0.00,,,0.37,0.0,WUHU216DAVISVP2,2013-06-10 01:52:00,
2013-06-09 20:57:00,57.6,55.8,29.60,NE,36,1.0,5.0,94,0.00,,,0.37,0.0,WUHU216DAVISVP2,2013-06-10 01:57:00,
2013-06-09 21:02:00,57.6,55.8,29.60,NE,35,2.0,6.0,94,0.00,,,0.37,0.0,WUHU216DAVISVP2,2013-06-10 02:02:00,
2013-06-09 21:07:00,57.6,55.8,29.60,NE,34,0.0,6.0,94,0.00,,,0.37,0.0,WUHU216DAVISVP2,2013-06-10 02:07:00,
2013-06-09 21:12:00,56.6,55.8,29.85,NE,35,1.0,2.0,97,0.00,,,0.37,0.00,VWS V14.01,2013-06-10 02:12:00,
2013-06-09 21:17:00,57.5,56.0,29.60,NE,34,0.0,2.0,95,0.00,,,0.37,0.0,WUHU216DAVISVP2,2013-06-10 02:17:00,
2013-06-09 21:22:00,57.5,55.7,29.60,NE,35,1.0,2.0,94,0.00,,,0.37,0.0,WUHU216DAVISVP2,2013-06-10 02:22:00,
2013-06-09 21:27:00,57.4,55.6,29.60,NE,35,0.0,3.0,94,0.00,,,0.37,0.0,WUHU216DAVISVP2,2013-06-10 02:27:00,
2013-06-09 21:32:00,57.4,56.0,29.61,NE,34,4.0,4.0,95,0.00,,,0.37,0.0,WUHU216DAVISVP2,2013-06-10 02:32:00,
2013-06-09 21:37:00,56.4,55.6,29.85,NNE,25,3.0,3.0,97,0.00,,,0.37,0.00,VWS V14.01,2013-06-10 02:37:00,
2013-06-09 21:42:00,57.5,56.1,29.61,NNE,22,2.0,5.0,95,0.00,,,0.37,0.0,WUHU216DAVISVP2,2013-06-10 02:42:00,
2013-06-09 21:47:00,56.4,55.6,29.86,NNE,22,0.0,0.0,97,0.00,,,0.37,0.00,VWS V14.01,2013-06-10 02:47:00,
2013-06-09 21:52:00,56.4,55.6,29.86,NNE,22,1.0,2.0,97,0.00,,,0.37,0.00,VWS V14.01,2013-06-10 02:52:00,
2013-06-09 21:57:00,57.5,56.0,29.61,NNE,22,0.0,2.0,95,0.00,,,0.37,0.0,WUHU216DAVISVP2,2013-06-10 02:57:00,
2013-06-09 22:02:00,56.5,55.7,29.86,NNE,22,0.0,0.0,97,0.00,,,0.37,0.00,VWS V14.01,2013-06-10 03:02:00,
2013-06-09 22:07:00,57.4,55.9,29.62,NNE,22,0.0,0.0,95,0.00,,,0.37,0.0,WUHU216DAVISVP2,2013-06-10 03:07:00,
2013-06-09 22:12:00,56.4,55.6,29.86,North,355,2.0,3.0,97,0.00,,,0.37,0.00,VWS V14.01,2013-06-10 03:12:00,
2013-06-09 22:17:00,56.4,55.6,29.87,North,355,3.0,4.0,97,0.00,,,0.37,0.00,VWS V14.01,2013-06-10 03:17:00,
2013-06-09 22:22:00,57.4,55.9,29.62,North,355,2.0,5.0,95,0.00,,,0.37,0.0,WUHU216DAVISVP2,2013-06-10 03:22:00,
2013-06-09 22:27:00,57.4,55.9,29.62,North,355,1.0,5.0,95,0.00,,,0.37,0.0,WUHU216DAVISVP2,2013-06-10 03:27:00,
2013-06-09 22:32:00,57.4,55.9,29.62,NNW,345,2.0,5.0,95,0.00,,,0.37,0.0,WUHU216DAVISVP2,2013-06-10 03:32:00,
2013-06-09 22:37:00,57.4,55.9,29.62,NNW,345,3.0,5.0,95,0.00,,,0.37,0.0,WUHU216DAVISVP2,2013-06-10 03:37:00,
2013-06-09 22:42:00,57.4,55.9,29.62,NNW,333,4.0,6.0,95,0.00,,,0.37,0.0,WUHU216DAVISVP2,2013-06-10 03:42:00,
2013-06-09 22:47:00,56.4,55.6,29.87,NNW,333,3.0,3.0,97,0.00,,OVC013,0.37,0.00,VWS V14.01,2013-06-10 03:47:00,
2013-06-09 22:52:00,57.4,56.0,29.62,North,350,4.0,7.0,95,0.00,,,0.37,0.0,WUHU216DAVISVP2,2013-06-10 03:52:00,
2013-06-09 22:57:00,57.4,56.0,29.62,North,355,5.0,7.0,95,0.00,,,0.37,0.0,WUHU216DAVISVP2,2013-06-10 03:57:00,
2013-06-09 23:01:00,56.4,55.6,29.87,North,355,5.0,5.0,97,0.00,,,0.37,0.00,VWS V14.01,2013-06-10 04:01:00,
2013-06-09 23:06:00,56.4,55.6,29.87,North,360,4.0,4.0,97,0.00,,,0.37,0.00,VWS V14.01,2013-06-10 04:06:00,
2013-06-09 23:11:00,57.4,55.9,29.62,NNW,348,2.0,6.0,95,0.00,,,0.37,0.0,WUHU216DAVISVP2,2013-06-10 04:11:00,
2013-06-09 23:16:00,57.4,55.9,29.62,NNW,348,4.0,6.0,95,0.00,,,0.37,0.0,WUHU216DAVISVP2,2013-06-10 04:16:00,
2013-06-09 23:21:00,57.4,55.9,29.62,NNW,348,2.0,5.0,95,0.00,,,0.37,0.0,WUHU216DAVISVP2,2013-06-10 04:21:00,
2013-06-09 23:26:00,57.4,55.9,29.61,NNW,348,1.0,5.0,95,0.00,,,0.37,0.0,WUHU216DAVISVP2,2013-06-10 04:26:00,
2013-06-09 23:31:00,57.4,55.9,29.62,NNW,347,2.0,5.0,95,0.00,,,0.37,0.0,WUHU216DAVISVP2,2013-06-10 04:31:00,
2013-06-09 23:36:00,56.4,55.6,29.87,NNW,333,3.0,3.0,97,0.00,,,0.37,0.00,VWS V14.01,2013-06-10 04:36:00,
2013-06-09 23:41:00,57.4,56.0,29.61,NNW,341,3.0,6.0,95,0.00,,,0.37,0.0,WUHU216DAVISVP2,2013-06-10 04:41:00,
2013-06-09 23:46:00,56.4,55.6,29.87,North,350,4.0,4.0,97,0.00,,,0.37,0.00,VWS V14.01,2013-06-10 04:46:00,
2013-06-09 23:51:00,57.5,56.0,29.62,North,355,4.0,6.0,95,0.00,,,0.37,0.0,WUHU216DAVISVP2,2013-06-10 04:51:00,
2013-06-09 23:56:00,57.5,56.1,29.62,North,355,3.0,6.0,95,0.00,,,0.37,0.0,WUHU216DAVISVP2,2013-06-10 04:56:00,